CheckWX is a tool to help pilots better visualize weather data.  It is not intended as a substitute for an official pre-flight weather briefing.

07:50:08 UTC

KLNS METAR
Lancaster Airport
Lancaster, Pennsylvania, USA
Current

57 mins ago

KLNS 060653Z AUTO 00000KT 10SM OVC110 M01/M05 A3015 RMK AO2 SLP213 T10061050
Observed
Dec-6 @ 06:53 UTC
Visibility
10 SM
Flight Rules
VFR
Cloud Levels
  • Overcast at 11,000' AGL
Temperature
-1°C / 30°F
Dewpoint
-5°C / 23°F
Humidity
75%
Altimeter
30.15" Hg
Pressure
1021.02 hPa
Previous

2 hours ago

KLNS 060553Z AUTO 00000KT 10SM CLR M01/M05 A3014 RMK AO2 SLP209 T10061050 10044 21017 51010
Observed
Dec-6 @ 05:53 UTC
Visibility
10 SM
Flight Rules
VFR
Cloud Levels
  • Clear skies
Temperature
-1°C / 30°F
Dewpoint
-5°C / 23°F
Humidity
75%
Altimeter
30.14" Hg
Pressure
1020.62 hPa
Previous

3 hours ago

KLNS 060453Z AUTO 28004KT 10SM CLR M01/M05 A3014 RMK AO2 SLP209 T10061050 400671017
Observed
Dec-6 @ 04:53 UTC
Wind
  • 280° at 4 KTS
Visibility
10 SM
Flight Rules
VFR
Cloud Levels
  • Clear skies
Temperature
-1°C / 30°F
Dewpoint
-5°C / 23°F
Humidity
75%
Altimeter
30.14" Hg
Pressure
1020.62 hPa